createdAt,value
2023-03-11T00:00:02.193Z,948.63
2023-03-11T00:00:58.862Z,948.53
2023-03-11T00:01:54.232Z,948.53
2023-03-11T00:02:50.070Z,948.51
2023-03-11T00:03:44.970Z,948.49
2023-03-11T00:04:40.131Z,948.55
2023-03-11T00:05:36.061Z,948.57
2023-03-11T00:06:31.293Z,948.57
2023-03-11T00:07:27.173Z,948.65
2023-03-11T00:08:22.224Z,948.63
2023-03-11T00:09:17.388Z,948.77
2023-03-11T00:10:13.120Z,948.75
2023-03-11T00:11:08.603Z,948.77
2023-03-11T00:12:03.751Z,948.82
2023-03-11T00:13:00.196Z,948.77
2023-03-11T00:13:55.329Z,948.65
2023-03-11T00:14:51.219Z,948.75
2023-03-11T00:15:46.341Z,948.63
2023-03-11T00:16:41.980Z,948.65
2023-03-11T00:17:36.852Z,948.75
2023-03-11T00:18:32.174Z,948.78
2023-03-11T00:19:27.367Z,948.80
2023-03-11T00:20:25.081Z,948.84
2023-03-11T00:21:20.359Z,948.80
2023-03-11T00:22:15.656Z,948.82
2023-03-11T00:23:10.653Z,948.94
2023-03-11T00:24:05.696Z,948.96
2023-03-11T00:25:00.857Z,948.96
2023-03-11T00:25:56.842Z,948.86
2023-03-11T00:26:52.143Z,948.90
2023-03-11T00:27:47.320Z,948.96
2023-03-11T00:28:42.378Z,949.08
2023-03-11T00:29:37.512Z,949.08
2023-03-11T00:30:32.583Z,949.04
2023-03-11T00:31:27.642Z,948.98
2023-03-11T00:32:22.660Z,949.06
2023-03-11T00:33:17.697Z,949.04
2023-03-11T00:34:12.685Z,948.94
2023-03-11T00:35:07.862Z,948.98
2023-03-11T00:36:03.237Z,949.08
2023-03-11T00:36:57.982Z,948.92
2023-03-11T00:37:53.070Z,948.98
2023-03-11T00:38:48.147Z,948.96
2023-03-11T00:39:43.219Z,948.98
2023-03-11T00:40:43.379Z,949.02
2023-03-11T00:41:38.837Z,948.98
2023-03-11T00:42:33.830Z,948.94
2023-03-11T00:43:29.007Z,948.98
2023-03-11T00:44:24.177Z,949.02
2023-03-11T00:45:19.736Z,949.08
2023-03-11T00:46:14.901Z,949.00
2023-03-11T00:47:09.989Z,949.02
2023-03-11T00:48:05.298Z,949.02
2023-03-11T00:49:02.385Z,949.10
2023-03-11T00:49:56.600Z,949.12
2023-03-11T00:50:52.597Z,949.12
2023-03-11T00:51:47.633Z,949.18
2023-03-11T00:52:43.074Z,949.08
2023-03-11T00:53:38.626Z,949.14
2023-03-11T00:54:34.067Z,949.12
2023-03-11T00:55:29.074Z,949.08
2023-03-11T00:56:25.778Z,949.10
2023-03-11T00:57:20.927Z,949.10
2023-03-11T00:58:16.716Z,949.10
2023-03-11T00:59:11.984Z,949.06
2023-03-11T01:00:07.284Z,949.02
2023-03-11T01:01:03.328Z,949.06
2023-03-11T01:01:58.280Z,949.08
2023-03-11T01:02:54.095Z,949.16
2023-03-11T01:03:49.257Z,949.14
2023-03-11T01:04:44.710Z,949.20
2023-03-11T01:05:40.736Z,949.16
2023-03-11T01:06:44.860Z,949.18
2023-03-11T01:07:31.809Z,949.14
2023-03-11T01:08:26.069Z,949.08
2023-03-11T01:09:21.791Z,949.12
2023-03-11T01:10:16.968Z,949.08
2023-03-11T01:11:12.424Z,949.14
2023-03-11T01:12:08.671Z,949.04
2023-03-11T01:13:03.852Z,949.02
2023-03-11T01:13:59.614Z,949.02
2023-03-11T01:14:54.779Z,948.98
2023-03-11T01:15:50.174Z,948.98
2023-03-11T01:16:45.802Z,948.98
2023-03-11T01:17:40.995Z,949.00
2023-03-11T01:18:36.960Z,949.00
2023-03-11T01:19:31.967Z,949.04
2023-03-11T01:20:27.542Z,949.00
2023-03-11T01:21:23.469Z,949.02
2023-03-11T01:22:18.495Z,949.00
2023-03-11T01:23:13.773Z,948.94
2023-03-11T01:24:10.027Z,948.96
2023-03-11T01:25:05.199Z,949.02
2023-03-11T01:26:01.329Z,949.00
2023-03-11T01:26:56.196Z,948.92
2023-03-11T01:27:51.636Z,948.90
2023-03-11T01:28:47.350Z,948.94
2023-03-11T01:29:42.667Z,948.98
2023-03-11T01:30:38.660Z,948.98
2023-03-11T01:31:33.680Z,948.92
2023-03-11T01:32:29.139Z,948.96
2023-03-11T01:33:24.180Z,948.92
2023-03-11T01:34:20.829Z,948.80
2023-03-11T01:35:16.203Z,948.82
2023-03-11T01:36:11.926Z,948.80
2023-03-11T01:37:07.131Z,948.80
2023-03-11T01:38:02.362Z,948.80
2023-03-11T01:38:58.081Z,948.77
2023-03-11T01:39:53.350Z,948.63
2023-03-11T01:40:49.208Z,948.75
2023-03-11T01:41:44.188Z,948.75
2023-03-11T01:42:39.395Z,948.77
2023-03-11T01:43:35.381Z,948.75
2023-03-11T01:44:30.576Z,948.78
2023-03-11T01:45:25.770Z,948.75
2023-03-11T01:46:22.090Z,948.77
2023-03-11T01:47:17.382Z,948.75
2023-03-11T01:48:13.123Z,948.80
2023-03-11T01:49:08.220Z,948.82
2023-03-11T01:50:03.488Z,948.77
2023-03-11T01:50:58.647Z,948.77
2023-03-11T01:51:53.886Z,948.82
2023-03-11T01:52:49.017Z,948.80
2023-03-11T01:53:44.473Z,948.78
2023-03-11T01:54:40.078Z,948.80
2023-03-11T01:55:35.378Z,948.84
2023-03-11T01:56:30.540Z,948.90
2023-03-11T01:57:26.399Z,948.84
2023-03-11T01:58:21.666Z,948.94
2023-03-11T01:59:16.877Z,948.92
2023-03-11T02:00:12.031Z,948.96
2023-03-11T02:01:07.139Z,948.94
2023-03-11T02:02:02.194Z,948.88
2023-03-11T02:02:57.344Z,948.82
2023-03-11T02:03:52.252Z,948.78
2023-03-11T02:04:47.304Z,948.82
2023-03-11T02:05:42.522Z,948.84
2023-03-11T02:06:37.611Z,948.82
2023-03-11T02:07:32.736Z,948.92
2023-03-11T02:08:27.911Z,949.00
2023-03-11T02:09:23.056Z,948.90
2023-03-11T02:10:18.130Z,948.84
2023-03-11T02:11:13.350Z,948.94
2023-03-11T02:12:08.269Z,948.98
2023-03-11T02:13:03.254Z,948.98
2023-03-11T02:13:58.308Z,948.90
2023-03-11T02:14:53.402Z,949.02
2023-03-11T02:15:48.644Z,949.06
2023-03-11T02:16:43.391Z,948.94
2023-03-11T02:17:38.529Z,948.84
2023-03-11T02:18:33.542Z,948.94
2023-03-11T02:19:28.548Z,948.90
2023-03-11T02:20:23.636Z,948.80
2023-03-11T02:21:18.675Z,948.80
2023-03-11T02:22:13.688Z,948.82
2023-03-11T02:23:09.409Z,948.67
2023-03-11T02:24:04.407Z,948.63
2023-03-11T02:24:59.742Z,948.63
2023-03-11T02:25:54.647Z,948.63
2023-03-11T02:26:49.899Z,948.59
2023-03-11T02:27:44.882Z,948.67
2023-03-11T02:28:40.025Z,948.75
2023-03-11T02:29:35.044Z,948.80
2023-03-11T02:30:30.276Z,948.82
2023-03-11T02:31:25.228Z,948.80
2023-03-11T02:32:20.306Z,948.82
2023-03-11T02:33:15.362Z,948.86
2023-03-11T02:34:10.428Z,948.82
2023-03-11T02:35:05.586Z,948.78
2023-03-11T02:36:00.647Z,948.84
2023-03-11T02:36:55.703Z,948.84
2023-03-11T02:37:50.834Z,948.86
2023-03-11T02:38:45.815Z,948.92
2023-03-11T02:39:43.373Z,948.86
2023-03-11T02:40:38.527Z,948.92
2023-03-11T02:41:33.436Z,948.98
2023-03-11T02:42:28.487Z,949.02
2023-03-11T02:43:23.538Z,948.98
2023-03-11T02:44:18.532Z,948.96
2023-03-11T02:45:13.605Z,948.96
2023-03-11T02:46:09.014Z,948.98
2023-03-11T02:47:04.673Z,949.06
2023-03-11T02:47:59.844Z,949.00
2023-03-11T02:48:55.139Z,948.98
2023-03-11T02:49:50.304Z,949.04
2023-03-11T02:50:45.611Z,949.04
2023-03-11T02:51:40.748Z,949.12
2023-03-11T02:52:35.944Z,949.14
2023-03-11T02:53:31.074Z,949.12
2023-03-11T02:54:26.463Z,949.12
2023-03-11T02:55:24.381Z,949.12
2023-03-11T02:56:19.365Z,949.16
2023-03-11T02:57:14.495Z,949.20
2023-03-11T02:58:09.707Z,949.18
2023-03-11T02:59:04.868Z,949.20
2023-03-11T03:00:00.158Z,949.18
2023-03-11T03:00:55.316Z,949.20
2023-03-11T03:01:50.473Z,949.26
2023-03-11T03:02:46.169Z,949.33
2023-03-11T03:03:41.710Z,949.29
2023-03-11T03:04:36.835Z,949.29
2023-03-11T03:05:32.838Z,949.29
2023-03-11T03:06:27.836Z,949.35
2023-03-11T03:07:23.485Z,949.35
2023-03-11T03:08:19.177Z,949.33
2023-03-11T03:09:14.338Z,949.29
2023-03-11T03:10:09.482Z,949.33
2023-03-11T03:11:06.289Z,949.31
2023-03-11T03:12:01.361Z,949.31
2023-03-11T03:12:57.070Z,949.28
2023-03-11T03:13:52.204Z,949.22
2023-03-11T03:14:47.417Z,949.26
2023-03-11T03:15:43.142Z,949.18
2023-03-11T03:16:38.449Z,949.18
2023-03-11T03:17:34.201Z,949.24
2023-03-11T03:18:29.357Z,949.26
2023-03-11T03:19:24.941Z,949.29
2023-03-11T03:20:20.484Z,949.33
2023-03-11T03:21:15.890Z,949.29
2023-03-11T03:22:11.305Z,949.31
2023-03-11T03:23:07.454Z,949.35
2023-03-11T03:24:02.758Z,949.33
2023-03-11T03:24:58.458Z,949.28
2023-03-11T03:25:53.778Z,949.22
2023-03-11T03:26:49.926Z,949.24
2023-03-11T03:27:44.745Z,949.28
2023-03-11T03:28:40.053Z,949.29
2023-03-11T03:29:35.946Z,949.37
2023-03-11T03:30:30.978Z,949.51
2023-03-11T03:31:26.203Z,949.59
2023-03-11T03:32:21.963Z,949.59
2023-03-11T03:33:17.179Z,949.59
2023-03-11T03:34:12.566Z,949.61
2023-03-11T03:35:08.774Z,949.69
2023-03-11T03:36:03.958Z,949.63
2023-03-11T03:36:59.690Z,949.53
2023-03-11T03:37:54.826Z,949.51
2023-03-11T03:38:50.276Z,949.49
2023-03-11T03:39:45.877Z,949.43
2023-03-11T03:40:41.202Z,949.33
2023-03-11T03:41:37.201Z,949.37
2023-03-11T03:42:32.427Z,949.45
2023-03-11T03:43:27.729Z,949.45
2023-03-11T03:44:23.500Z,949.43
2023-03-11T03:45:18.692Z,949.43
2023-03-11T03:46:13.946Z,949.47
2023-03-11T03:47:10.434Z,949.45
2023-03-11T03:48:05.659Z,949.45
2023-03-11T03:49:01.383Z,949.43
2023-03-11T03:49:56.669Z,949.47
2023-03-11T03:50:52.034Z,949.47
2023-03-11T03:51:47.622Z,949.41
2023-03-11T03:52:42.814Z,949.41
2023-03-11T03:53:38.673Z,949.49
2023-03-11T03:54:33.806Z,949.53
2023-03-11T03:55:29.330Z,949.55
2023-03-11T03:56:24.884Z,949.55
2023-03-11T03:57:20.067Z,949.51
2023-03-11T03:58:15.218Z,949.55
2023-03-11T03:59:11.642Z,949.55
2023-03-11T04:00:06.895Z,949.57
2023-03-11T04:01:02.621Z,949.63
2023-03-11T04:01:57.832Z,949.67
2023-03-11T04:02:53.009Z,949.71
2023-03-11T04:03:48.208Z,949.73
2023-03-11T04:04:43.548Z,949.69
2023-03-11T04:05:39.547Z,949.73
2023-03-11T04:06:34.622Z,949.69
2023-03-11T04:07:29.768Z,949.69
2023-03-11T04:08:26.190Z,949.75
2023-03-11T04:09:21.360Z,949.77
2023-03-11T04:10:17.246Z,949.73
2023-03-11T04:11:12.547Z,949.73
2023-03-11T04:12:07.749Z,949.79
2023-03-11T04:13:03.493Z,949.80
2023-03-11T04:13:58.685Z,949.82
2023-03-11T04:14:54.529Z,949.80
2023-03-11T04:15:49.632Z,949.82
2023-03-11T04:16:44.851Z,949.86
2023-03-11T04:17:40.621Z,949.84
2023-03-11T04:18:35.832Z,949.92
2023-03-11T04:19:31.111Z,949.88
2023-03-11T04:20:26.139Z,949.94
2023-03-11T04:21:21.354Z,949.94
2023-03-11T04:22:16.274Z,949.94
2023-03-11T04:23:11.459Z,949.92
2023-03-11T04:24:10.139Z,949.92
2023-03-11T04:25:05.480Z,949.90
2023-03-11T04:26:00.487Z,949.94
2023-03-11T04:26:55.664Z,949.94
2023-03-11T04:27:50.701Z,949.94
2023-03-11T04:28:45.692Z,949.92
2023-03-11T04:29:40.744Z,949.94
2023-03-11T04:30:35.801Z,949.98
2023-03-11T04:31:30.749Z,949.96
2023-03-11T04:32:25.913Z,949.98
2023-03-11T04:33:20.954Z,949.96
2023-03-11T04:34:15.977Z,949.92
2023-03-11T04:35:11.116Z,949.92
2023-03-11T04:36:05.985Z,949.98
2023-03-11T04:37:01.041Z,949.94
2023-03-11T04:37:56.053Z,949.98
2023-03-11T04:38:51.148Z,949.98
2023-03-11T04:39:46.286Z,949.98
2023-03-11T04:40:41.516Z,949.94
2023-03-11T04:41:37.223Z,949.98
2023-03-11T04:42:32.489Z,949.98
2023-03-11T04:43:27.643Z,950.10
2023-03-11T04:44:22.937Z,950.02
2023-03-11T04:45:18.444Z,950.02
2023-03-11T04:46:13.463Z,950.02
2023-03-11T04:47:08.574Z,950.04
2023-03-11T04:48:03.785Z,950.08
2023-03-11T04:48:58.917Z,950.10
2023-03-11T04:49:54.287Z,950.08
2023-03-11T04:50:49.298Z,950.06
2023-03-11T04:51:44.328Z,950.08
2023-03-11T04:52:39.314Z,950.08
2023-03-11T04:53:34.389Z,950.10
2023-03-11T04:54:30.896Z,950.08
2023-03-11T04:55:24.405Z,950.10
2023-03-11T04:56:19.423Z,950.10
2023-03-11T04:57:14.437Z,950.12
2023-03-11T04:58:09.505Z,950.14
2023-03-11T04:59:04.554Z,950.12
2023-03-11T04:59:59.746Z,950.12
2023-03-11T05:00:54.652Z,950.10
2023-03-11T05:01:49.742Z,950.08
2023-03-11T05:02:44.717Z,950.10
2023-03-11T05:03:39.751Z,950.08
2023-03-11T05:04:34.800Z,950.08
2023-03-11T05:05:29.834Z,950.10
2023-03-11T05:06:24.889Z,950.16
2023-03-11T05:07:19.935Z,950.16
2023-03-11T05:08:15.215Z,950.16
2023-03-11T05:09:10.283Z,950.18
2023-03-11T05:10:05.491Z,950.22
2023-03-11T05:11:00.392Z,950.22
2023-03-11T05:11:59.778Z,950.26
2023-03-11T05:12:54.765Z,950.26
2023-03-11T05:13:49.846Z,950.24
2023-03-11T05:14:45.013Z,950.26
2023-03-11T05:15:40.055Z,950.24
2023-03-11T05:16:35.007Z,950.28
2023-03-11T05:17:30.045Z,950.30
2023-03-11T05:18:25.093Z,950.24
2023-03-11T05:19:20.172Z,950.28
2023-03-11T05:21:42.928Z,950.30
2023-03-11T05:22:36.197Z,950.31
2023-03-11T05:23:31.435Z,950.31
2023-03-11T05:24:26.628Z,950.31
2023-03-11T05:25:21.787Z,950.35
2023-03-11T05:26:16.985Z,950.37
2023-03-11T05:27:12.192Z,950.35
2023-03-11T05:28:07.521Z,950.35
2023-03-11T05:29:02.809Z,950.37
2023-03-11T05:29:58.202Z,950.37
2023-03-11T05:30:53.221Z,950.35
2023-03-11T05:31:48.569Z,950.37
2023-03-11T05:32:43.694Z,950.35
2023-03-11T05:33:38.885Z,950.35
2023-03-11T05:34:34.251Z,950.35
2023-03-11T05:35:29.311Z,950.39
2023-03-11T05:36:24.491Z,950.43
2023-03-11T05:37:19.702Z,950.45
2023-03-11T05:38:14.868Z,950.51
2023-03-11T05:39:10.212Z,950.51
2023-03-11T05:40:05.640Z,950.51
2023-03-11T05:41:00.753Z,950.53
2023-03-11T05:41:56.121Z,950.47
2023-03-11T05:42:51.337Z,950.51
2023-03-11T05:43:46.572Z,950.49
2023-03-11T05:44:42.035Z,950.57
2023-03-11T05:45:37.172Z,950.61
2023-03-11T05:46:32.531Z,950.63
2023-03-11T05:47:27.687Z,950.63
2023-03-11T05:48:22.937Z,950.61
2023-03-11T05:49:18.193Z,950.59
2023-03-11T05:50:13.441Z,950.57
2023-03-11T05:51:08.670Z,950.59
2023-03-11T05:52:04.068Z,950.61
2023-03-11T05:52:59.228Z,950.63
2023-03-11T05:53:54.521Z,950.65
2023-03-11T05:54:49.868Z,950.63
2023-03-11T05:55:45.166Z,950.61
2023-03-11T05:56:40.436Z,950.57
2023-03-11T05:57:35.784Z,950.55
2023-03-11T05:58:31.115Z,950.59
2023-03-11T05:59:26.582Z,950.61
2023-03-11T06:00:21.760Z,950.61
2023-03-11T06:01:17.054Z,950.59
2023-03-11T06:02:12.474Z,950.57
2023-03-11T06:03:07.810Z,950.57
2023-03-11T06:04:03.241Z,950.57
2023-03-11T06:04:58.512Z,950.61
2023-03-11T06:05:53.624Z,950.59
2023-03-11T06:06:48.932Z,950.61
2023-03-11T06:07:44.244Z,950.65
2023-03-11T06:08:39.561Z,950.67
2023-03-11T06:09:34.888Z,950.67
2023-03-11T06:10:30.195Z,950.69
2023-03-11T06:11:25.494Z,950.67
2023-03-11T06:12:20.946Z,950.67
2023-03-11T06:13:16.132Z,950.69
2023-03-11T06:14:11.433Z,950.69
2023-03-11T06:15:06.771Z,950.69
2023-03-11T06:16:02.149Z,950.71
2023-03-11T06:16:57.440Z,950.71
2023-03-11T06:17:52.765Z,950.69
2023-03-11T06:18:48.162Z,950.69
2023-03-11T06:19:43.491Z,950.65
2023-03-11T06:20:38.839Z,950.65
2023-03-11T06:21:34.208Z,950.67
2023-03-11T06:22:29.727Z,950.69
2023-03-11T06:23:25.040Z,950.69
2023-03-11T06:24:20.599Z,950.69
2023-03-11T06:25:15.904Z,950.69
2023-03-11T06:26:11.301Z,950.69
2023-03-11T06:27:06.719Z,950.65
2023-03-11T06:28:02.157Z,950.69
2023-03-11T06:28:57.883Z,950.69
2023-03-11T06:29:53.160Z,950.67
2023-03-11T06:30:48.599Z,950.69
2023-03-11T06:31:44.208Z,950.71
2023-03-11T06:32:39.673Z,950.75
2023-03-11T06:33:34.992Z,950.75
2023-03-11T06:34:30.592Z,950.78
2023-03-11T06:35:25.864Z,950.82
2023-03-11T06:36:21.454Z,950.86
2023-03-11T06:37:16.878Z,950.86
2023-03-11T06:38:12.312Z,950.86
2023-03-11T06:39:07.881Z,950.86
2023-03-11T06:40:03.298Z,950.84
2023-03-11T06:40:58.719Z,950.82
2023-03-11T06:41:54.165Z,950.82
2023-03-11T06:42:49.546Z,950.90
2023-03-11T06:43:45.133Z,950.94
2023-03-11T06:44:40.410Z,950.96
2023-03-11T06:45:35.929Z,951.00
2023-03-11T06:46:31.210Z,951.02
2023-03-11T06:47:26.611Z,951.02
2023-03-11T06:48:22.187Z,951.06
2023-03-11T06:49:17.664Z,951.08
2023-03-11T06:50:13.071Z,951.12
2023-03-11T06:51:08.515Z,951.10
2023-03-11T06:52:03.934Z,951.10
2023-03-11T06:52:59.362Z,951.08
2023-03-11T06:53:54.824Z,951.08
2023-03-11T06:54:50.389Z,951.04
2023-03-11T06:55:45.810Z,951.04
2023-03-11T06:56:41.245Z,951.08
2023-03-11T06:57:36.801Z,951.08
2023-03-11T06:58:32.261Z,951.10
2023-03-11T06:59:27.850Z,951.10
2023-03-11T07:00:23.163Z,951.12
2023-03-11T07:01:18.667Z,951.14
2023-03-11T07:02:13.965Z,951.16
2023-03-11T07:03:09.532Z,951.16
2023-03-11T07:04:05.232Z,951.22
2023-03-11T07:05:00.368Z,951.24
2023-03-11T07:05:55.835Z,951.33
2023-03-11T07:06:51.232Z,951.35
2023-03-11T07:07:46.778Z,951.33
2023-03-11T07:08:42.395Z,951.35
2023-03-11T07:09:37.669Z,951.37
2023-03-11T07:10:33.216Z,951.37
2023-03-11T07:11:28.682Z,951.35
2023-03-11T07:12:24.083Z,951.37
2023-03-11T07:13:19.658Z,951.39
2023-03-11T07:14:15.168Z,951.39
2023-03-11T07:15:10.467Z,951.39
2023-03-11T07:16:06.205Z,951.41
2023-03-11T07:17:01.639Z,951.43
2023-03-11T07:17:57.004Z,951.47
2023-03-11T07:18:52.538Z,951.53
2023-03-11T07:19:47.996Z,951.51
2023-03-11T07:20:43.452Z,951.53
2023-03-11T07:21:38.886Z,951.55
2023-03-11T07:22:34.310Z,951.55
2023-03-11T07:23:29.723Z,951.59
2023-03-11T07:24:25.350Z,951.53
2023-03-11T07:25:20.629Z,951.53
2023-03-11T07:26:16.567Z,951.55
2023-03-11T07:27:11.605Z,951.57
2023-03-11T07:28:07.000Z,951.57
2023-03-11T07:29:03.602Z,951.53
2023-03-11T07:29:58.656Z,951.51
2023-03-11T07:30:53.685Z,951.47
2023-03-11T07:31:48.811Z,951.55
2023-03-11T07:32:44.245Z,951.55
2023-03-11T07:33:39.622Z,951.57
2023-03-11T07:34:35.032Z,951.55
2023-03-11T07:35:30.505Z,951.51
2023-03-11T07:36:25.940Z,951.49
2023-03-11T07:37:21.453Z,951.53
2023-03-11T07:38:16.914Z,951.51
2023-03-11T07:39:12.407Z,951.55
2023-03-11T07:40:08.037Z,951.57
2023-03-11T07:41:03.510Z,951.57
2023-03-11T07:41:58.950Z,951.63
2023-03-11T07:42:54.606Z,951.61
2023-03-11T07:43:50.102Z,951.63
2023-03-11T07:44:45.559Z,951.63
2023-03-11T07:45:41.034Z,951.65
2023-03-11T07:46:36.519Z,951.67
2023-03-11T07:47:31.908Z,951.67
2023-03-11T07:48:27.500Z,951.69
2023-03-11T07:49:22.766Z,951.71
2023-03-11T07:50:18.369Z,951.69
2023-03-11T07:51:13.827Z,951.75
2023-03-11T07:52:09.290Z,951.73
2023-03-11T07:53:04.860Z,951.77
2023-03-11T07:54:00.374Z,951.79
2023-03-11T07:54:55.789Z,951.83
2023-03-11T07:55:51.370Z,951.81
2023-03-11T07:56:46.787Z,951.83
2023-03-11T07:57:42.206Z,951.85
2023-03-11T07:58:37.765Z,951.86
2023-03-11T07:59:33.098Z,951.85
2023-03-11T08:00:28.501Z,951.85
2023-03-11T08:01:23.873Z,951.83
2023-03-11T08:02:19.330Z,951.81
2023-03-11T08:03:14.941Z,951.79
2023-03-11T08:04:12.909Z,951.81
2023-03-11T08:05:06.021Z,951.81
2023-03-11T08:06:01.442Z,951.81
2023-03-11T08:06:56.811Z,951.81
2023-03-11T08:07:52.216Z,951.81
2023-03-11T08:08:47.840Z,951.79
2023-03-11T08:09:43.108Z,951.79
2023-03-11T08:10:38.540Z,951.81
2023-03-11T08:11:34.004Z,951.86
2023-03-11T08:12:29.468Z,951.88
2023-03-11T08:13:25.123Z,951.86
2023-03-11T08:14:20.609Z,951.90
2023-03-11T08:15:15.938Z,951.90
2023-03-11T08:16:11.414Z,951.92
2023-03-11T08:17:06.760Z,951.88
2023-03-11T08:18:02.517Z,951.90
2023-03-11T08:18:57.735Z,951.96
2023-03-11T08:19:53.238Z,951.92
2023-03-11T08:20:48.840Z,951.94
2023-03-11T08:21:44.348Z,951.92
2023-03-11T08:22:55.491Z,951.94
2023-03-11T08:23:36.236Z,951.94
2023-03-11T08:24:30.598Z,951.94
2023-03-11T08:25:26.079Z,951.92
2023-03-11T08:26:21.537Z,951.92
2023-03-11T08:27:17.136Z,951.96
2023-03-11T08:28:12.703Z,951.94
2023-03-11T08:29:08.003Z,951.94
2023-03-11T08:30:03.604Z,951.94
2023-03-11T08:30:59.097Z,951.96
2023-03-11T08:31:54.437Z,951.96
2023-03-11T08:32:50.137Z,951.90
2023-03-11T08:33:45.698Z,951.94
2023-03-11T08:34:41.047Z,951.92
2023-03-11T08:35:36.653Z,951.98
2023-03-11T08:36:32.164Z,951.96
2023-03-11T08:37:27.567Z,951.98
2023-03-11T08:38:23.194Z,952.02
2023-03-11T08:39:18.449Z,952.00
2023-03-11T08:40:14.072Z,952.04
2023-03-11T08:41:09.527Z,952.06
2023-03-11T08:42:04.976Z,952.10
2023-03-11T08:43:00.711Z,952.14
2023-03-11T08:43:55.883Z,952.16
2023-03-11T08:44:51.269Z,952.16
2023-03-11T08:45:46.767Z,952.18
2023-03-11T08:46:42.211Z,952.14
2023-03-11T08:47:37.661Z,952.12
2023-03-11T08:48:33.339Z,952.08
2023-03-11T08:49:28.646Z,952.08
2023-03-11T08:50:24.083Z,952.10
2023-03-11T08:51:19.597Z,952.06
2023-03-11T08:52:15.077Z,952.12
2023-03-11T08:53:10.675Z,952.14
2023-03-11T08:54:05.964Z,952.16
2023-03-11T08:55:01.558Z,952.12
2023-03-11T08:55:57.011Z,952.16
2023-03-11T08:56:52.480Z,952.14
2023-03-11T08:57:47.928Z,952.18
2023-03-11T08:58:43.328Z,952.14
2023-03-11T08:59:38.703Z,952.18
2023-03-11T09:00:34.108Z,952.18
2023-03-11T09:01:29.616Z,952.16
2023-03-11T09:02:25.335Z,952.18
2023-03-11T09:03:20.731Z,952.16
2023-03-11T09:04:16.239Z,952.20
2023-03-11T09:05:11.810Z,952.20
2023-03-11T09:06:06.949Z,952.20
2023-03-11T09:07:01.887Z,952.22
2023-03-11T09:07:56.997Z,952.24
2023-03-11T09:08:51.980Z,952.20
2023-03-11T09:09:46.998Z,952.22
2023-03-11T09:10:42.013Z,952.20
2023-03-11T09:11:37.012Z,952.28
2023-03-11T09:12:32.078Z,952.28
2023-03-11T09:13:27.256Z,952.28
2023-03-11T09:14:22.157Z,952.24
2023-03-11T09:15:17.162Z,952.28
2023-03-11T09:16:12.337Z,952.28
2023-03-11T09:17:07.616Z,952.30
2023-03-11T09:18:03.344Z,952.34
2023-03-11T09:18:58.698Z,952.36
2023-03-11T09:19:54.152Z,952.34
2023-03-11T09:20:49.557Z,952.37
2023-03-11T09:21:45.259Z,952.37
2023-03-11T09:22:40.808Z,952.37
2023-03-11T09:23:36.199Z,952.36
2023-03-11T09:24:31.866Z,952.37
2023-03-11T09:25:27.147Z,952.32
2023-03-11T09:26:22.635Z,952.34
2023-03-11T09:27:18.133Z,952.32
2023-03-11T09:28:13.839Z,952.34
2023-03-11T09:29:08.766Z,952.32
2023-03-11T09:30:03.846Z,952.34
2023-03-11T09:30:58.933Z,952.37
2023-03-11T09:31:54.004Z,952.36
2023-03-11T09:32:49.252Z,952.37
2023-03-11T09:33:44.146Z,952.41
2023-03-11T09:34:39.182Z,952.37
2023-03-11T09:35:34.228Z,952.36
2023-03-11T09:36:29.231Z,952.41
2023-03-11T09:37:24.231Z,952.39
2023-03-11T09:38:19.333Z,952.41
2023-03-11T09:39:14.302Z,952.39
2023-03-11T09:40:09.432Z,952.41
2023-03-11T09:41:04.413Z,952.45
2023-03-11T09:42:02.142Z,952.39
2023-03-11T09:42:57.408Z,952.43
2023-03-11T09:43:52.255Z,952.41
2023-03-11T09:44:47.264Z,952.45
2023-03-11T09:45:43.612Z,952.45
2023-03-11T09:46:39.193Z,952.49
2023-03-11T09:47:34.660Z,952.49
2023-03-11T09:48:30.035Z,952.49
2023-03-11T09:49:25.579Z,952.49
2023-03-11T09:50:20.945Z,952.51
2023-03-11T09:51:16.443Z,952.51
2023-03-11T09:52:12.035Z,952.51
2023-03-11T09:53:07.566Z,952.49
2023-03-11T09:54:02.935Z,952.49
2023-03-11T09:54:58.500Z,952.51
2023-03-11T09:55:53.949Z,952.53
2023-03-11T09:56:49.568Z,952.51
2023-03-11T09:57:44.926Z,952.55
2023-03-11T09:58:40.231Z,952.51
2023-03-11T09:59:35.024Z,952.51
2023-03-11T10:00:30.066Z,952.51
2023-03-11T10:01:25.090Z,952.55
2023-03-11T10:02:20.364Z,952.57
2023-03-11T10:03:15.535Z,952.57
2023-03-11T10:04:10.444Z,952.57
2023-03-11T10:05:07.233Z,952.57
2023-03-11T10:06:02.262Z,952.57
2023-03-11T10:06:57.327Z,952.57
2023-03-11T10:07:52.459Z,952.61
2023-03-11T10:08:47.597Z,952.63
2023-03-11T10:09:42.626Z,952.65
2023-03-11T10:10:37.641Z,952.63
2023-03-11T10:11:32.780Z,952.65
2023-03-11T10:12:28.176Z,952.61
2023-03-11T10:13:23.735Z,952.63
2023-03-11T10:14:19.432Z,952.63
2023-03-11T10:15:14.726Z,952.61
2023-03-11T10:16:10.203Z,952.63
2023-03-11T10:17:05.620Z,952.59
2023-03-11T10:18:01.030Z,952.61
2023-03-11T10:18:56.733Z,952.61
2023-03-11T10:19:51.980Z,952.55
2023-03-11T10:20:47.422Z,952.51
2023-03-11T10:21:42.921Z,952.47
2023-03-11T10:22:38.341Z,952.53
2023-03-11T10:23:33.894Z,952.51
2023-03-11T10:24:29.319Z,952.55
2023-03-11T10:25:24.728Z,952.53
2023-03-11T10:26:20.432Z,952.57
2023-03-11T10:27:15.818Z,952.57
2023-03-11T10:28:15.018Z,952.57
2023-03-11T10:29:10.450Z,952.59
2023-03-11T10:30:06.062Z,952.55
2023-03-11T10:31:01.313Z,952.57
2023-03-11T10:31:56.859Z,952.57
2023-03-11T10:32:52.462Z,952.57
2023-03-11T10:33:48.044Z,952.55
2023-03-11T10:34:43.656Z,952.55
2023-03-11T10:35:39.033Z,952.57
2023-03-11T10:36:34.520Z,952.61
2023-03-11T10:37:42.522Z,952.61
2023-03-11T10:38:26.459Z,952.59
2023-03-11T10:39:21.074Z,952.59
2023-03-11T10:40:16.628Z,952.55
2023-03-11T10:41:12.160Z,952.59
2023-03-11T10:42:07.163Z,952.59
2023-03-11T10:43:02.191Z,952.53
2023-03-11T10:43:57.249Z,952.55
2023-03-11T10:44:52.742Z,952.53
2023-03-11T10:45:47.300Z,952.51
2023-03-11T10:46:42.310Z,952.49
2023-03-11T10:47:37.309Z,952.53
2023-03-11T10:48:32.437Z,952.51
2023-03-11T10:49:27.433Z,952.55
2023-03-11T10:50:23.698Z,952.57
2023-03-11T10:51:19.087Z,952.57
2023-03-11T10:52:14.519Z,952.57
2023-03-11T10:53:10.098Z,952.57
2023-03-11T10:54:05.576Z,952.59
2023-03-11T10:55:00.915Z,952.57
2023-03-11T10:55:56.504Z,952.57
2023-03-11T10:56:51.745Z,952.57
2023-03-11T10:57:47.214Z,952.59
2023-03-11T10:58:42.580Z,952.61
2023-03-11T10:59:38.110Z,952.57
2023-03-11T11:00:33.549Z,952.57
2023-03-11T11:01:29.277Z,952.53
2023-03-11T11:02:24.515Z,952.49
2023-03-11T11:03:20.093Z,952.45
2023-03-11T11:04:15.644Z,952.43
2023-03-11T11:05:10.761Z,952.43
2023-03-11T11:06:05.910Z,952.45
2023-03-11T11:07:00.794Z,952.41
2023-03-11T11:07:55.831Z,952.43
2023-03-11T11:08:50.848Z,952.39
2023-03-11T11:09:45.884Z,952.41
2023-03-11T11:10:40.915Z,952.37
2023-03-11T11:11:35.905Z,952.37
2023-03-11T11:12:31.097Z,952.37
2023-03-11T11:13:25.982Z,952.47
2023-03-11T11:14:22.741Z,952.41
2023-03-11T11:15:17.756Z,952.45
2023-03-11T11:16:13.059Z,952.41
2023-03-11T11:18:09.929Z,952.39
2023-03-11T11:19:04.685Z,952.41
2023-03-11T11:20:00.183Z,952.43
2023-03-11T11:20:55.734Z,952.41
2023-03-11T11:23:19.441Z,952.39
2023-03-11T11:24:12.011Z,952.39
2023-03-11T11:25:07.442Z,952.39
2023-03-11T11:26:03.014Z,952.39
2023-03-11T11:26:58.400Z,952.37
2023-03-11T11:27:53.940Z,952.37
2023-03-11T11:28:49.721Z,952.39
2023-03-11T11:29:45.017Z,952.41
2023-03-11T11:30:40.436Z,952.41
2023-03-11T11:31:35.999Z,952.39
2023-03-11T11:32:31.438Z,952.37
2023-03-11T11:33:26.988Z,952.41
2023-03-11T11:34:23.180Z,952.41